KOLY/OLY METAR and TAF weather

Enter ICAO airport designator
Station Type Date Time Source
KOLY METAR 2019/04/19 08:15 UTC NOAA

KOLY 190815Z AUTO 35012G15KT 7SM RA OVC011 07/07 A2966 RMK AO2 P0002 T00730073


Station Type Date Time Source
KOLY Decoded METAR 2019/04/19 08:15 UTC NOAA

Olney-Noble, Olney-Noble Airport, IL, United States (KOLY) 38-43-19N 088-10-35W
Apr 19, 2019 - 04:15 AM EDT / 2019.04.19 0815 UTC
Wind: from the N (350 degrees) at 14 MPH (12 KT) gusting to 17 MPH (15 KT):0
Visibility: 7 mile(s):0
Sky conditions: overcast
Weather: rain
Precipitation last hour: 0.02 inches
Temperature: 45.1 F (7.3 C)
Dew Point: 45.1 F (7.3 C)
Relative Humidity: 100%
Pressure (altimeter): 29.66 in. Hg (1004 hPa)
ob: KOLY 190815Z AUTO 35012G15KT 7SM RA OVC011 07/07 A2966 RMK AO2 P0002 T00730073
cycle: 8

Station Type Date Time Source
KOLY TAF UTC NOAA

Error!

Example: see airport list